Time;durP1;ratioP1;P1;durP2;ratioP2;P2;SDS_P1;SDS_P2;PMS_P1;PMS_P2;Temp;Humidity;BMP_temperature;BMP_pressure;BME280_temperature;BME280_humidity;BME280_pressure;Samples;Min_cycle;Max_cycle;Signal;HPM_P1;HPM_P2
2022/01/08 00:02:24;;;;;;;9.70;5.80;;;;;;;-1.85;65.46;99672.69;208647;1319;140475;-66
2022/01/08 00:07:51;;;;;;;12.20;7.00;;;;;;;-1.87;65.72;99674.84;208053;1316;139746;-72
2022/01/08 00:12:56;;;;;;;15.00;6.40;;;;;;;-1.93;65.52;99665.85;208024;1316;141730;-70
2022/01/08 00:18:00;;;;;;;11.70;6.50;;;;;;;-2.06;65.51;99658.48;207798;1316;155541;-68
2022/01/08 00:23:19;;;;;;;;;;;;;;;;;;;;;
2022/01/08 00:28:23;;;;;;;14.90;6.90;;;;;;;-2.27;65.59;99647.75;207813;1316;139905;-68
2022/01/08 00:33:26;;;;;;;13.70;7.30;;;;;;;-2.28;65.71;99644.58;207373;1316;140835;-67
2022/01/08 00:38:32;;;;;;;17.30;8.10;;;;;;;-2.29;65.66;99645.48;206956;1316;139905;-69
2022/01/08 00:43:38;;;;;;;18.80;8.70;;;;;;;-2.34;65.76;99648.48;206949;1318;140691;-68
2022/01/08 00:48:40;;;;;;;10.80;6.40;;;;;;;-2.41;65.66;99646.45;206841;1316;139451;-70
2022/01/08 00:53:47;;;;;;;15.40;7.80;;;;;;;-2.51;65.70;99637.79;206852;1316;161534;-68
2022/01/08 00:58:52;;;;;;;13.60;6.70;;;;;;;-2.57;65.85;99635.13;208194;1316;141134;-67
2022/01/08 01:03:58;;;;;;;17.80;9.10;;;;;;;-2.63;65.93;99628.08;207456;1318;139931;-67
2022/01/08 01:09:02;;;;;;;16.00;6.60;;;;;;;-2.66;65.99;99619.84;207550;1316;140513;-67
2022/01/08 01:14:09;;;;;;;12.20;6.80;;;;;;;-2.63;66.07;99617.25;208038;1316;140077;-68
2022/01/08 01:19:13;;;;;;;13.30;6.90;;;;;;;-2.63;66.14;99611.86;208310;1316;143233;-66
2022/01/08 01:24:21;;;;;;;9.50;5.60;;;;;;;-2.65;66.16;99604.58;207789;1316;139860;-65
2022/01/08 01:29:37;;;;;;;16.20;7.00;;;;;;;-2.67;66.34;99599.77;207395;1316;141071;-67
2022/01/08 01:51:01;;;;;;;10.00;6.30;;;;;;;-2.88;66.62;99579.45;209316;1317;140340;-67
2022/01/08 01:56:04;;;;;;;10.90;5.90;;;;;;;-2.84;66.61;99584.24;208917;1316;142355;-69
2022/01/08 02:01:06;;;;;;;16.50;8.10;;;;;;;-2.81;66.70;99584.30;209410;1315;139238;-68
2022/01/08 02:06:10;;;;;;;18.30;11.50;;;;;;;-2.81;66.92;99581.27;208037;1316;141657;-68
2022/01/08 02:11:19;;;;;;;16.80;11.70;;;;;;;-2.82;66.94;99579.70;208586;1316;141145;-67
2022/01/08 02:16:27;;;;;;;12.90;8.50;;;;;;;-2.85;67.15;99576.34;208892;1316;140738;-69
2022/01/08 02:21:33;;;;;;;11.70;7.50;;;;;;;-2.87;67.21;99572.22;207309;1316;140215;-66
2022/01/08 02:26:36;;;;;;;9.90;5.60;;;;;;;-2.91;67.39;99573.98;207398;1316;140694;-70
2022/01/08 02:31:53;;;;;;;11.70;7.90;;;;;;;-2.97;67.32;99569.66;208562;1316;141442;-70
2022/01/08 02:36:59;;;;;;;11.30;7.20;;;;;;;-2.95;67.63;99565.34;208189;1316;140710;-68
2022/01/08 02:42:05;;;;;;;11.20;5.70;;;;;;;-2.93;67.74;99558.13;207563;1317;140737;-69
2022/01/08 02:47:18;;;;;;;7.90;5.90;;;;;;;-2.90;67.88;99560.14;208452;1317;140091;-74
2022/01/08 02:52:23;;;;;;;8.60;6.20;;;;;;;-2.91;68.05;99554.30;207593;1316;139150;-70
2022/01/08 02:57:26;;;;;;;8.50;4.40;;;;;;;-2.91;68.08;99547.86;207727;1316;139582;-75
2022/01/08 03:02:28;;;;;;;9.90;6.50;;;;;;;-2.90;68.40;99541.19;208118;1315;139714;-70
2022/01/08 03:07:32;;;;;;;8.40;6.00;;;;;;;-2.88;68.56;99545.70;207687;1316;140384;-70
2022/01/08 03:12:38;;;;;;;8.00;5.80;;;;;;;-2.85;68.47;99539.98;207307;1316;140086;-70
2022/01/08 03:17:43;;;;;;;10.90;7.50;;;;;;;-2.78;68.73;99541.19;207823;1315;140742;-71
2022/01/08 03:22:47;;;;;;;11.60;7.30;;;;;;;-2.74;68.76;99537.66;207541;1316;141480;-69
2022/01/08 03:27:53;;;;;;;13.60;6.40;;;;;;;-2.73;68.74;99526.54;207253;1317;140719;-70
2022/01/08 03:32:56;;;;;;;16.00;7.30;;;;;;;-2.77;68.72;99516.40;206960;1319;141023;-69
2022/01/08 03:37:58;;;;;;;14.50;6.60;;;;;;;-2.82;68.74;99513.44;207530;1316;140865;-68
2022/01/08 03:43:02;;;;;;;12.70;7.40;;;;;;;-2.91;68.74;99513.83;207896;1317;142576;-69
2022/01/08 03:53:27;;;;;;;11.40;5.80;;;;;;;-3.03;69.06;99508.80;207430;1318;140471;-72
2022/01/08 03:58:28;;;;;;;6.30;4.90;;;;;;;-3.07;69.12;99505.85;207946;1316;140813;-72
2022/01/08 04:03:31;;;;;;;15.60;9.00;;;;;;;-3.08;69.07;99507.38;208812;1316;141973;-73
2022/01/08 04:08:34;;;;;;;12.50;7.40;;;;;;;-3.01;69.19;99501.63;208619;1316;141771;-73
2022/01/08 04:13:39;;;;;;;10.00;6.60;;;;;;;-2.96;69.26;99494.99;208716;1315;141181;-69
2022/01/08 04:18:46;;;;;;;10.50;6.50;;;;;;;-2.93;69.18;99493.12;208189;1316;142330;-67
2022/01/08 04:23:49;;;;;;;15.20;8.30;;;;;;;-2.92;69.27;99491.72;207987;1317;140949;-69
2022/01/08 04:28:53;;;;;;;11.20;6.60;;;;;;;-2.92;69.45;99487.02;207633;1315;140346;-71
2022/01/08 04:33:56;;;;;;;12.60;7.30;;;;;;;-2.93;69.46;99482.27;207424;1316;142464;-72
2022/01/08 04:38:59;;;;;;;6.40;3.60;;;;;;;-2.96;69.49;99482.53;207965;1318;142299;-71
2022/01/08 04:44:02;;;;;;;10.00;6.30;;;;;;;-2.99;69.53;99478.11;207353;1316;141082;-71
2022/01/08 04:49:05;;;;;;;10.30;5.60;;;;;;;-3.02;69.66;99472.30;207151;1316;142198;-74
2022/01/08 04:54:13;;;;;;;12.70;7.60;;;;;;;-3.04;69.66;99466.48;207211;1318;143187;-67
2022/01/08 04:59:17;;;;;;;11.80;7.00;;;;;;;-3.01;69.53;99460.11;206854;1316;247912;-74
2022/01/08 05:04:26;;;;;;;11.30;7.60;;;;;;;-3.00;69.70;99463.09;207020;1316;141472;-69
2022/01/08 05:09:31;;;;;;;9.10;7.50;;;;;;;-3.00;69.62;99467.25;208473;1316;140668;-71
2022/01/08 05:14:36;;;;;;;12.70;6.90;;;;;;;-3.01;69.73;99471.25;207484;1316;140095;-71
2022/01/08 05:19:48;;;;;;;9.80;6.60;;;;;;;-3.05;69.92;99471.98;207117;1317;140943;-73
2022/01/08 05:24:59;;;;;;;12.10;7.40;;;;;;;-3.11;69.72;99475.03;207370;1317;143569;-71
2022/01/08 05:30:03;;;;;;;9.60;7.10;;;;;;;-3.14;69.89;99474.45;207389;1316;140002;-76
2022/01/08 05:35:05;;;;;;;11.90;6.00;;;;;;;-3.16;69.91;99472.52;207657;1317;140879;-71
2022/01/08 05:40:09;;;;;;;14.80;8.80;;;;;;;-3.18;70.00;99469.09;207131;1316;142310;-68
2022/01/08 05:45:15;;;;;;;13.30;7.60;;;;;;;-3.15;69.93;99467.54;207063;1317;142450;-68
2022/01/08 05:50:18;;;;;;;10.70;6.80;;;;;;;-3.09;69.99;99468.73;208033;1316;140398;-70
2022/01/08 05:55:26;;;;;;;16.80;8.90;;;;;;;-3.07;70.13;99466.16;206957;1316;652715;-65
2022/01/08 06:00:37;;;;;;;13.20;6.60;;;;;;;-3.06;70.21;99468.57;207388;1315;140087;-70
2022/01/08 06:05:41;;;;;;;14.00;9.90;;;;;;;-3.06;70.22;99459.88;209129;1316;140269;-70
2022/01/08 06:10:43;;;;;;;16.20;12.60;;;;;;;-3.01;70.28;99460.49;209478;1316;140914;-72
2022/01/08 06:15:52;;;;;;;17.30;7.70;;;;;;;-2.99;70.40;99465.30;208301;1316;139938;-70
2022/01/08 06:20:59;;;;;;;13.40;8.40;;;;;;;-2.94;70.15;99465.79;207843;1316;141000;-71
2022/01/08 06:26:05;;;;;;;14.20;9.20;;;;;;;-2.86;70.25;99471.23;207269;1316;140643;-68
2022/01/08 06:31:10;;;;;;;20.10;10.00;;;;;;;-2.80;70.41;99473.39;208799;1315;142244;-73
2022/01/08 06:36:14;;;;;;;13.30;8.10;;;;;;;-2.76;70.52;99469.67;208795;1318;140186;-68
2022/01/08 06:41:17;;;;;;;15.70;8.60;;;;;;;-2.72;70.46;99463.54;207437;1315;139562;-69
2022/01/08 06:46:20;;;;;;;21.10;9.20;;;;;;;-2.69;70.65;99469.46;208095;1317;139649;-68
2022/01/08 06:51:26;;;;;;;8.50;5.60;;;;;;;-2.67;70.54;99467.61;207999;1319;141481;-69
2022/01/08 06:56:29;;;;;;;16.50;8.00;;;;;;;-2.65;70.54;99461.29;207119;1316;141404;-67
2022/01/08 07:01:35;;;;;;;11.70;7.80;;;;;;;-2.57;70.36;99457.16;206955;1317;141689;-73
2022/01/08 07:06:50;;;;;;;16.80;9.40;;;;;;;-2.49;70.44;99454.10;207935;1317;140143;-69
2022/01/08 07:11:53;;;;;;;16.10;10.00;;;;;;;-2.40;70.51;99453.39;207048;1318;141117;-67
2022/01/08 07:16:57;;;;;;;16.00;9.00;;;;;;;-2.34;70.48;99466.56;206940;1316;142180;-70
2022/01/08 07:22:00;;;;;;;20.50;8.50;;;;;;;-2.32;70.50;99467.81;207410;1317;140490;-70
2022/01/08 07:27:03;;;;;;;12.70;6.60;;;;;;;-2.32;70.65;99464.09;207210;1317;144065;-67
2022/01/08 07:32:07;;;;;;;13.50;9.20;;;;;;;-2.34;70.48;99461.92;207883;1315;150925;-65
2022/01/08 07:37:09;;;;;;;12.00;8.00;;;;;;;-2.34;70.58;99467.48;207262;1316;140924;-65
2022/01/08 07:42:22;;;;;;;14.50;8.70;;;;;;;-2.32;70.45;99467.65;206860;1316;140684;-70
2022/01/08 07:47:26;;;;;;;17.00;9.00;;;;;;;-2.27;70.46;99468.52;207453;1318;143541;-70
2022/01/08 07:52:29;;;;;;;17.20;9.60;;;;;;;-2.22;70.61;99472.29;207277;1315;140340;-71
2022/01/08 07:57:32;;;;;;;60.00;38.20;;;;;;;-2.17;70.76;99478.61;208158;1316;142488;-70
2022/01/08 08:02:36;;;;;;;22.90;17.60;;;;;;;-2.14;70.64;99475.75;207197;1318;140858;-67
2022/01/08 08:07:43;;;;;;;13.10;8.30;;;;;;;-2.10;70.80;99468.39;207938;1316;139689;-70
2022/01/08 08:12:47;;;;;;;9.60;7.70;;;;;;;-2.08;70.59;99473.77;208547;1315;140371;-69
2022/01/08 08:17:53;;;;;;;16.10;14.10;;;;;;;-2.04;70.80;99479.27;208408;1316;139936;-67
2022/01/08 08:22:56;;;;;;;11.70;9.40;;;;;;;-1.93;70.70;99482.83;207763;1318;140830;-70
2022/01/08 08:27:59;;;;;;;19.00;9.80;;;;;;;-1.85;70.63;99482.71;209218;1317;140357;-69
2022/01/08 08:33:03;;;;;;;17.80;10.60;;;;;;;-1.78;70.81;99483.65;208301;1317;139799;-72
2022/01/08 08:38:06;;;;;;;21.10;11.00;;;;;;;-1.70;70.62;99491.66;209096;1316;139690;-75
2022/01/08 08:43:09;;;;;;;17.00;9.90;;;;;;;-1.66;70.44;99495.85;208593;1319;205404;-75
2022/01/08 08:48:16;;;;;;;18.40;11.70;;;;;;;-1.64;70.58;99495.83;208341;1316;139831;-67
2022/01/08 08:53:19;;;;;;;18.10;12.60;;;;;;;-1.59;70.57;99493.48;207859;1316;141406;-70
2022/01/08 08:58:31;;;;;;;29.20;14.10;;;;;;;-1.50;70.64;99485.36;208064;1318;141034;-69
2022/01/08 09:03:35;;;;;;;25.80;13.50;;;;;;;-1.39;71.10;99481.45;207784;1316;140410;-67
2022/01/08 09:08:59;;;;;;;18.30;9.80;;;;;;;-1.29;71.18;99480.98;207159;1316;139752;-69
2022/01/08 09:14:02;;;;;;;18.90;12.70;;;;;;;-1.26;71.20;99477.63;207333;1316;139622;-68
2022/01/08 09:19:13;;;;;;;20.00;11.10;;;;;;;-1.22;71.43;99484.67;207790;1312;140729;-70
2022/01/08 09:24:19;;;;;;;15.80;10.40;;;;;;;-1.20;71.42;99485.41;207624;1315;140839;-69
2022/01/08 09:29:22;;;;;;;23.60;12.40;;;;;;;-1.14;71.77;99476.23;208079;1318;141437;-68
2022/01/08 09:34:26;;;;;;;26.60;13.60;;;;;;;-0.97;71.71;99476.50;206915;1317;140612;-66
2022/01/08 09:39:30;;;;;;;21.40;13.60;;;;;;;-0.83;71.82;99462.18;207590;1316;141037;-69
2022/01/08 09:44:33;;;;;;;23.80;12.50;;;;;;;-0.76;71.94;99452.26;207627;1318;141252;-67
2022/01/08 09:49:37;;;;;;;17.10;10.80;;;;;;;-0.69;71.95;99445.83;207059;1315;141082;-67
2022/01/08 09:54:40;;;;;;;18.80;11.20;;;;;;;-0.65;71.84;99440.38;208036;1316;142974;-67
2022/01/08 09:59:45;;;;;;;19.80;10.80;;;;;;;-0.62;71.97;99434.37;207520;1315;140688;-67
2022/01/08 10:04:48;;;;;;;16.00;10.70;;;;;;;-0.57;71.92;99432.57;208003;1316;141665;-67
2022/01/08 10:10:12;;;;;;;19.30;11.80;;;;;;;-0.47;72.01;99439.21;207073;1316;140873;-66
2022/01/08 10:20:58;;;;;;;22.60;11.20;;;;;;;-0.23;71.77;99439.66;207981;1317;140512;-70
2022/01/08 10:26:10;;;;;;;21.60;13.40;;;;;;;-0.18;71.90;99438.76;208521;1319;140994;-74
2022/01/08 10:31:37;;;;;;;18.30;11.70;;;;;;;-0.11;71.66;99436.36;208949;1316;141275;-72
2022/01/08 10:37:15;;;;;;;20.00;10.80;;;;;;;-0.07;71.69;99432.91;209485;1316;141313;-72
2022/01/08 10:42:25;;;;;;;;;;;;;;;-0.02;71.60;99431.17;208515;1316;140943;-71
2022/01/08 10:47:29;;;;;;;16.90;10.60;;;;;;;-0.04;71.59;99429.62;208172;1316;125959;-72
2022/01/08 10:52:47;;;;;;;23.40;12.20;;;;;;;-0.02;71.66;99428.85;209448;1316;140193;-72
2022/01/08 10:57:57;;;;;;;23.00;11.30;;;;;;;0.10;71.50;99427.43;207553;1315;140737;-67
2022/01/08 11:03:01;;;;;;;23.00;12.20;;;;;;;0.21;71.53;99421.30;207109;1315;140375;-66
2022/01/08 11:08:14;;;;;;;21.30;12.40;;;;;;;0.25;71.80;99411.45;207724;1317;139384;-66
2022/01/08 11:13:22;;;;;;;18.10;10.60;;;;;;;0.29;71.73;99410.73;207207;1315;139926;-66
2022/01/08 11:18:27;;;;;;;20.60;11.80;;;;;;;0.28;71.62;99411.42;207027;1316;139572;-72
2022/01/08 11:23:35;;;;;;;25.80;10.40;;;;;;;0.26;71.58;99406.42;207447;1317;139643;-71
2022/01/08 11:28:46;;;;;;;21.10;11.50;;;;;;;0.25;71.84;99405.08;207178;1316;140493;-69
2022/01/08 11:33:56;;;;;;;15.40;9.20;;;;;;;0.24;71.40;99405.20;207703;1317;140086;-66
2022/01/08 11:39:00;;;;;;;25.60;13.70;;;;;;;0.23;71.45;99399.59;207259;1317;139851;-66
2022/01/08 11:44:04;;;;;;;23.60;12.00;;;;;;;0.25;71.38;99392.50;207266;1318;144238;-66
2022/01/08 11:49:09;;;;;;;22.00;12.30;;;;;;;0.31;71.48;99392.98;207732;1317;141429;-67
2022/01/08 11:54:14;;;;;;;23.10;14.00;;;;;;;0.39;71.67;99390.60;207379;1316;142283;-66
2022/01/08 11:59:21;;;;;;;20.10;11.70;;;;;;;0.40;71.85;99388.33;206760;1315;140988;-65
2022/01/08 12:04:27;;;;;;;27.50;14.10;;;;;;;0.41;71.80;99377.41;207586;1318;140150;-67
2022/01/08 12:09:34;;;;;;;17.90;13.00;;;;;;;0.45;71.94;99376.13;208132;1315;141193;-67
2022/01/08 12:14:37;;;;;;;21.20;11.70;;;;;;;0.51;71.86;99371.52;208634;1318;140501;-67
2022/01/08 12:20:00;;;;;;;20.80;13.10;;;;;;;0.56;71.64;99368.85;207749;1318;140844;-67
2022/01/08 12:25:05;;;;;;;25.00;15.00;;;;;;;0.68;71.54;99367.20;207617;1316;150976;-68
2022/01/08 12:30:17;;;;;;;25.80;16.20;;;;;;;0.77;71.55;99351.63;207997;1318;140504;-67
2022/01/08 12:35:33;;;;;;;27.50;15.60;;;;;;;0.88;71.49;99347.71;209256;1315;140295;-65
2022/01/08 12:40:52;;;;;;;24.70;14.60;;;;;;;0.95;71.47;99346.69;209271;1316;140814;-68
2022/01/08 12:46:14;;;;;;;23.60;14.50;;;;;;;1.01;71.30;99351.02;209177;1317;141334;-69
2022/01/08 12:51:24;;;;;;;21.70;12.80;;;;;;;1.08;71.11;99341.14;207564;1315;142325;-67
2022/01/08 12:56:28;;;;;;;21.70;12.70;;;;;;;1.17;71.29;99340.80;208298;1312;141441;-68
2022/01/08 13:01:31;;;;;;;26.00;14.50;;;;;;;1.32;71.02;99339.96;208241;1316;153423;-68
2022/01/08 13:06:45;;;;;;;25.40;13.10;;;;;;;1.37;70.73;99337.88;207632;1315;142942;-65
2022/01/08 13:11:51;;;;;;;25.20;13.30;;;;;;;1.42;70.63;99343.55;208132;1314;140930;-65
2022/01/08 13:16:58;;;;;;;22.60;12.70;;;;;;;1.43;70.76;99342.02;207815;1315;142652;-67
2022/01/08 13:22:04;;;;;;;25.50;11.60;;;;;;;1.41;70.89;99335.91;208070;1316;141899;-65
2022/01/08 13:27:20;;;;;;;24.40;12.30;;;;;;;1.37;70.59;99334.00;208073;1317;139930;-65
2022/01/08 13:32:25;;;;;;;21.20;12.90;;;;;;;1.30;70.83;99332.02;207626;1318;140082;-69
2022/01/08 13:37:32;;;;;;;22.20;12.30;;;;;;;1.27;70.59;99326.44;207838;1317;139723;-66
2022/01/08 13:42:39;;;;;;;;;;;;;;;1.20;70.47;99329.13;207668;1316;140569;-68
2022/01/08 13:47:48;;;;;;;20.20;10.80;;;;;;;1.14;70.68;99325.77;208692;1317;127274;-68
2022/01/08 13:53:01;;;;;;;14.80;8.20;;;;;;;1.14;70.70;99319.69;206378;1317;885620;-65
2022/01/08 13:58:28;;;;;;;31.80;15.40;;;;;;;1.08;70.79;99322.08;207094;1316;141668;-65
2022/01/08 14:03:51;;;;;;;22.30;12.80;;;;;;;1.03;70.69;99327.90;207649;1316;140387;-66
2022/01/08 14:09:02;;;;;;;21.70;12.60;;;;;;;0.97;71.04;99325.77;208403;1316;140817;-64
2022/01/08 14:14:17;;;;;;;26.40;12.60;;;;;;;0.88;70.74;99325.63;208835;1316;140159;-66
2022/01/08 14:19:22;;;;;;;24.90;13.10;;;;;;;0.79;71.08;99320.95;207762;1315;141171;-65
2022/01/08 14:24:27;;;;;;;21.70;14.00;;;;;;;0.74;71.01;99319.70;207731;1316;140482;-66
2022/01/08 14:29:32;;;;;;;28.20;16.50;;;;;;;0.68;71.14;99324.25;209366;1313;140260;-67
2022/01/08 14:34:49;;;;;;;24.00;14.70;;;;;;;0.63;71.39;99327.42;208458;1316;141370;-71
2022/01/08 14:39:51;;;;;;;24.10;11.70;;;;;;;0.60;71.26;99327.84;207831;1315;139722;-70
2022/01/08 14:44:57;;;;;;;21.90;14.80;;;;;;;0.62;71.26;99329.10;208654;1316;141077;-70
2022/01/08 14:50:03;;;;;;;24.90;14.60;;;;;;;0.64;71.27;99326.90;207259;1315;141686;-71
2022/01/08 14:55:09;;;;;;;18.70;12.00;;;;;;;0.64;71.42;99328.36;208597;1313;141481;-70
2022/01/08 15:00:15;;;;;;;25.60;14.50;;;;;;;0.63;71.90;99328.39;208309;1317;140238;-69
2022/01/08 15:05:18;;;;;;;25.40;15.70;;;;;;;0.60;71.44;99326.70;209134;1318;141275;-67
2022/01/08 15:10:21;;;;;;;24.20;14.60;;;;;;;0.53;71.58;99329.15;207281;1318;142535;-67
2022/01/08 15:15:29;;;;;;;29.20;15.40;;;;;;;0.44;71.69;99334.21;208053;1316;143152;-67
2022/01/08 15:20:36;;;;;;;21.90;12.70;;;;;;;0.31;71.76;99332.41;207637;1318;139838;-68
2022/01/08 15:25:42;;;;;;;24.30;13.90;;;;;;;0.22;71.90;99335.38;207565;1315;140608;-67
2022/01/08 15:30:45;;;;;;;25.00;14.10;;;;;;;0.23;71.90;99328.13;207213;1315;140975;-67
2022/01/08 15:35:53;;;;;;;27.50;15.30;;;;;;;0.23;72.04;99322.52;207143;1316;140865;-67
2022/01/08 15:40:59;;;;;;;31.00;15.70;;;;;;;0.23;72.10;99318.38;206997;1315;141915;-68
2022/01/08 15:46:14;;;;;;;28.70;16.60;;;;;;;0.16;72.24;99318.46;207156;1318;141737;-68
2022/01/08 15:51:18;;;;;;;29.80;19.50;;;;;;;0.13;72.43;99316.42;206798;1318;151058;-68
2022/01/08 15:56:21;;;;;;;38.10;19.30;;;;;;;0.10;72.42;99318.00;207516;1316;140918;-68
2022/01/08 16:01:28;;;;;;;34.20;17.60;;;;;;;0.07;72.68;99310.29;206798;1316;141602;-67
2022/01/08 16:06:34;;;;;;;35.90;18.10;;;;;;;0.05;72.60;99311.50;208087;1317;140019;-67
2022/01/08 16:11:37;;;;;;;39.10;18.70;;;;;;;0.09;72.57;99307.22;207756;1318;140475;-67
2022/01/08 16:16:40;;;;;;;37.60;19.40;;;;;;;0.09;72.89;99305.45;208039;1318;141042;-65
2022/01/08 16:21:45;;;;;;;30.50;19.20;;;;;;;0.09;72.72;99305.45;207272;1315;141933;-67
2022/01/08 16:26:50;;;;;;;38.70;21.70;;;;;;;0.06;72.92;99301.84;207241;1318;153513;-69
2022/01/08 16:31:53;;;;;;;33.40;18.90;;;;;;;0.01;72.74;99294.85;207360;1316;140814;-68
2022/01/08 16:36:56;;;;;;;32.40;17.30;;;;;;;-0.05;73.03;99297.63;207747;1318;139924;-70
2022/01/08 16:42:02;;;;;;;114.10;56.40;;;;;;;-0.11;72.98;99286.31;207516;1318;140334;-66
2022/01/08 16:47:06;;;;;;;35.90;20.90;;;;;;;-0.11;73.09;99288.41;208607;1316;139978;-68
2022/01/08 16:52:16;;;;;;;38.70;27.00;;;;;;;-0.08;72.96;99284.03;208098;1319;142442;-69
2022/01/08 16:57:19;;;;;;;50.10;37.00;;;;;;;-0.03;73.27;99280.36;208865;1319;141943;-69
2022/01/08 17:02:21;;;;;;;35.90;19.90;;;;;;;-0.01;73.40;99281.27;208886;1317;141485;-68
2022/01/08 17:07:26;;;;;;;41.20;20.80;;;;;;;-0.01;73.35;99275.84;209410;1320;141351;-70
2022/01/08 17:12:32;;;;;;;33.80;19.90;;;;;;;-0.00;73.48;99267.73;209364;1316;141200;-69
2022/01/08 17:17:36;;;;;;;34.10;22.00;;;;;;;0.00;73.27;99266.33;208225;1316;140843;-72
2022/01/08 17:22:40;;;;;;;31.60;16.60;;;;;;;-0.02;73.50;99258.02;207495;1315;140980;-68
2022/01/08 17:27:44;;;;;;;42.10;19.30;;;;;;;-0.03;73.12;99252.88;207389;1318;141433;-69
2022/01/08 17:32:49;;;;;;;40.70;20.60;;;;;;;-0.06;73.22;99245.08;208041;1316;141005;-67
2022/01/08 17:37:56;;;;;;;35.60;17.60;;;;;;;-0.12;73.27;99247.09;207402;1316;140682;-68
2022/01/08 17:42:59;;;;;;;37.40;22.20;;;;;;;-0.19;73.43;99242.41;207467;1316;140509;-68
2022/01/08 17:48:04;;;;;;;43.90;20.50;;;;;;;-0.32;73.33;99236.00;208690;1316;141701;-66
2022/01/08 17:53:07;;;;;;;36.20;22.50;;;;;;;-0.43;73.18;99232.33;207645;1316;140853;-66
2022/01/08 17:58:10;;;;;;;43.30;21.70;;;;;;;-0.56;73.25;99228.80;207515;1318;139607;-66
2022/01/08 18:03:13;;;;;;;38.50;20.30;;;;;;;-0.66;73.34;99223.59;207387;1316;140631;-63
2022/01/08 18:08:20;;;;;;;43.60;25.30;;;;;;;-0.72;73.42;99217.81;207186;1315;141977;-64
2022/01/08 18:13:23;;;;;;;36.00;21.50;;;;;;;-0.75;73.45;99212.89;207828;1316;142151;-65
2022/01/08 18:18:47;;;;;;;47.60;22.20;;;;;;;-0.81;73.44;99210.80;207732;1317;140687;-65
2022/01/08 18:23:50;;;;;;;41.90;21.40;;;;;;;-0.89;73.91;99210.81;207183;1317;141872;-65
2022/01/08 18:28:55;;;;;;;47.50;22.20;;;;;;;-0.88;74.02;99207.17;208332;1317;141013;-66
2022/01/08 18:34:01;;;;;;;34.30;19.80;;;;;;;-0.86;74.26;99197.38;207168;1318;141144;-66
2022/01/08 18:39:06;;;;;;;45.00;21.00;;;;;;;-0.82;74.37;99199.63;207346;1316;140691;-65
2022/01/08 18:44:30;;;;;;;43.00;22.10;;;;;;;-0.75;74.44;99201.40;208430;1316;141368;-66
2022/01/08 18:49:37;;;;;;;34.40;20.50;;;;;;;-0.69;74.25;99201.36;206935;1318;140191;-66
2022/01/08 18:54:43;;;;;;;32.20;17.30;;;;;;;-0.69;74.33;99201.07;208331;1317;140682;-66
2022/01/08 18:59:49;;;;;;;37.90;18.40;;;;;;;-0.70;74.35;99198.65;208297;1316;140237;-66
2022/01/08 19:04:51;;;;;;;35.30;18.60;;;;;;;-0.70;74.21;99196.92;208411;1316;140349;-66
2022/01/08 19:09:57;;;;;;;41.30;19.10;;;;;;;-0.69;74.23;99194.36;208589;1320;139886;-66
2022/01/08 19:15:02;;;;;;;37.60;17.50;;;;;;;-0.61;74.13;99187.07;208619;1317;140683;-66
2022/01/08 19:20:07;;;;;;;40.20;18.90;;;;;;;-0.54;73.97;99177.66;208897;1316;141753;-66
2022/01/08 19:25:11;;;;;;;36.60;21.00;;;;;;;-0.47;73.88;99170.70;208762;1316;141128;-66
2022/01/08 19:30:17;;;;;;;34.70;21.50;;;;;;;-0.43;73.94;99165.83;208596;1316;140307;-66
2022/01/08 19:35:22;;;;;;;36.30;19.10;;;;;;;-0.41;73.74;99164.96;207832;1316;140363;-66
2022/01/08 19:40:25;;;;;;;32.70;17.70;;;;;;;-0.43;73.97;99167.30;206725;1316;140278;-66
2022/01/08 19:45:28;;;;;;;37.80;18.50;;;;;;;-0.42;73.93;99165.20;207667;1316;140654;-66
2022/01/08 19:50:30;;;;;;;45.90;22.90;;;;;;;-0.39;73.82;99164.41;208125;1316;221895;-66
2022/01/08 19:55:33;;;;;;;34.80;18.60;;;;;;;-0.39;73.83;99165.07;208646;1316;140705;-66
2022/01/08 20:00:35;;;;;;;35.60;17.90;;;;;;;-0.41;73.80;99159.36;207720;1316;140831;-66
2022/01/08 20:05:37;;;;;;;34.00;17.90;;;;;;;-0.43;73.79;99158.23;207663;1316;141078;-65
2022/01/08 20:10:41;;;;;;;41.00;16.90;;;;;;;-0.47;73.93;99153.71;206892;1316;141932;-65
2022/01/08 20:15:46;;;;;;;32.50;15.90;;;;;;;-0.49;73.85;99147.63;208050;1316;140105;-66
2022/01/08 20:20:48;;;;;;;32.60;17.00;;;;;;;-0.45;74.06;99146.04;207686;1316;140723;-66
2022/01/08 20:25:54;;;;;;;37.50;19.30;;;;;;;-0.42;74.08;99137.52;207730;1316;139963;-65
2022/01/08 20:30:57;;;;;;;35.30;18.20;;;;;;;-0.40;74.13;99123.48;208379;1317;141099;-66
2022/01/08 20:35:59;;;;;;;37.80;20.20;;;;;;;-0.39;73.99;99121.08;207539;1316;140376;-66
2022/01/08 20:41:05;;;;;;;40.90;19.60;;;;;;;-0.41;74.00;99115.67;207791;1316;141651;-66
2022/01/08 20:46:21;;;;;;;34.10;19.30;;;;;;;-0.40;74.25;99114.02;207462;1317;140181;-66
2022/01/08 20:51:24;;;;;;;37.00;19.50;;;;;;;-0.42;74.04;99111.52;207042;1316;140702;-65
2022/01/08 20:56:26;;;;;;;32.50;17.60;;;;;;;-0.44;74.01;99112.55;207588;1315;140893;-66
2022/01/08 21:01:29;;;;;;;33.00;18.40;;;;;;;-0.42;73.81;99109.00;207502;1316;141453;-66
2022/01/08 21:06:33;;;;;;;36.50;20.00;;;;;;;-0.36;74.03;99110.58;208503;1316;142072;-66
2022/01/08 21:11:35;;;;;;;33.50;17.50;;;;;;;-0.32;74.05;99104.30;208612;1316;140726;-66
2022/01/08 21:16:37;;;;;;;36.00;17.60;;;;;;;-0.34;73.96;99102.50;209403;1316;140918;-66
2022/01/08 21:21:40;;;;;;;34.20;17.60;;;;;;;-0.34;73.70;99098.67;209357;1316;140989;-67
2022/01/08 21:26:43;;;;;;;37.50;17.70;;;;;;;-0.33;73.78;99088.16;209017;1316;142293;-66
2022/01/08 21:31:46;;;;;;;34.30;17.10;;;;;;;-0.35;73.76;99079.24;209504;1316;140453;-66
2022/01/08 21:36:52;;;;;;;38.00;17.10;;;;;;;-0.32;73.68;99075.58;209062;1316;139814;-66
2022/01/08 21:41:57;;;;;;;34.00;20.20;;;;;;;-0.27;73.72;99070.34;208346;1315;141160;-65
2022/01/08 21:47:03;;;;;;;37.20;17.90;;;;;;;-0.23;73.57;99062.86;207839;1316;142448;-65
2022/01/08 21:52:10;;;;;;;36.40;21.10;;;;;;;-0.24;73.47;99046.89;207129;1316;784987;-65
2022/01/08 21:57:13;;;;;;;35.70;18.90;;;;;;;-0.26;73.69;99043.67;207334;1316;139717;-66
2022/01/08 22:02:27;;;;;;;31.50;16.70;;;;;;;-0.28;73.93;99035.44;207124;1316;139949;-65
2022/01/08 22:07:34;;;;;;;37.20;19.40;;;;;;;-0.34;73.92;99029.70;207695;1316;140807;-65
2022/01/08 22:12:39;;;;;;;36.50;19.50;;;;;;;-0.38;74.07;99023.33;207664;1317;140777;-66
2022/01/08 22:17:42;;;;;;;38.00;18.10;;;;;;;-0.38;73.95;99024.90;208415;1315;141395;-66
2022/01/08 22:22:46;;;;;;;35.60;17.50;;;;;;;-0.35;73.67;99014.77;208040;1317;142337;-65
2022/01/08 22:27:55;;;;;;;44.10;22.90;;;;;;;-0.35;73.66;99006.41;207756;1317;141476;-65
2022/01/08 22:33:00;;;;;;;46.60;21.50;;;;;;;-0.36;73.90;99001.39;208023;1316;140836;-65
2022/01/08 22:38:04;;;;;;;40.90;19.60;;;;;;;-0.41;73.76;98991.27;207926;1316;140267;-65
2022/01/08 22:43:07;;;;;;;46.20;22.00;;;;;;;-0.50;73.80;98984.79;207268;1316;141191;-65
2022/01/08 22:48:10;;;;;;;29.30;16.60;;;;;;;-0.55;74.00;98974.64;206884;1317;140605;-65
2022/01/08 22:53:14;;;;;;;36.40;19.00;;;;;;;-0.60;73.89;98968.61;206763;1318;141168;-65
2022/01/08 22:58:19;;;;;;;44.80;21.10;;;;;;;-0.63;74.00;98962.15;209083;1316;141006;-66
2022/01/08 23:03:48;;;;;;;42.20;22.90;;;;;;;-0.58;74.06;98960.55;207981;1316;151547;-66
2022/01/08 23:08:51;;;;;;;54.30;24.40;;;;;;;-0.55;74.05;98947.57;208487;1316;140434;-65
2022/01/08 23:13:55;;;;;;;48.90;19.80;;;;;;;-0.56;74.11;98936.56;208163;1315;140907;-65
2022/01/08 23:19:06;;;;;;;56.10;21.40;;;;;;;-0.60;74.01;98934.88;208293;1316;140255;-66
2022/01/08 23:24:15;;;;;;;51.10;21.50;;;;;;;-0.66;73.93;98925.35;208880;1317;140362;-67
2022/01/08 23:29:20;;;;;;;47.80;20.70;;;;;;;-0.74;73.86;98917.55;208610;1318;139860;-67
2022/01/08 23:34:23;;;;;;;45.70;20.80;;;;;;;-0.77;73.68;98914.84;208153;1317;141325;-68
2022/01/08 23:39:28;;;;;;;39.90;23.40;;;;;;;-0.83;73.47;98910.98;209003;1317;142243;-68